createdAt,value
2017-09-06T00:00:13.315Z,70.25
2017-09-06T00:00:53.896Z,69.96
2017-09-06T00:01:34.479Z,70.25
2017-09-06T00:02:15.059Z,69.58
2017-09-06T00:02:55.630Z,69.96
2017-09-06T00:03:36.223Z,69.77
2017-09-06T00:04:16.810Z,69.96
2017-09-06T00:04:57.419Z,69.29
2017-09-06T00:05:37.991Z,69.68
2017-09-06T00:06:18.574Z,69.77
2017-09-06T00:06:59.142Z,69.96
2017-09-06T00:07:39.727Z,69.87
2017-09-06T00:08:20.303Z,69.87
2017-09-06T00:09:00.881Z,69.87
2017-09-06T00:09:41.465Z,69.87
2017-09-06T00:10:22.055Z,69.77
2017-09-06T00:11:02.675Z,69.87
2017-09-06T00:11:43.253Z,69.87
2017-09-06T00:12:23.823Z,69.87
2017-09-06T00:13:04.400Z,69.96
2017-09-06T00:13:44.981Z,69.96
2017-09-06T00:14:25.561Z,69.77
2017-09-06T00:15:06.126Z,69.48
2017-09-06T00:15:46.700Z,70.25
2017-09-06T00:16:27.283Z,70.25
2017-09-06T00:17:07.858Z,69.87
2017-09-06T00:17:48.441Z,70.35
2017-09-06T00:18:29.009Z,70.54
2017-09-06T00:19:09.585Z,70.54
2017-09-06T00:19:50.169Z,70.73
2017-09-06T00:20:30.739Z,70.25
2017-09-06T00:21:11.300Z,69.87
2017-09-06T00:21:51.890Z,70.54
2017-09-06T00:22:32.458Z,70.35
2017-09-06T00:23:13.030Z,70.54
2017-09-06T00:23:53.601Z,70.54
2017-09-06T00:24:34.199Z,70.64
2017-09-06T00:25:17.452Z,70.54
2017-09-06T00:25:58.033Z,70.35
2017-09-06T00:26:38.616Z,70.44
2017-09-06T00:27:19.195Z,70.54
2017-09-06T00:27:59.761Z,70.54
2017-09-06T00:28:40.342Z,70.25
2017-09-06T00:29:20.929Z,70.64
2017-09-06T00:30:01.561Z,70.44
2017-09-06T00:30:42.105Z,70.64
2017-09-06T00:31:22.730Z,70.92
2017-09-06T00:32:03.311Z,71.02
2017-09-06T00:32:43.877Z,70.83
2017-09-06T00:33:24.464Z,70.83
2017-09-06T00:34:05.040Z,71.11
2017-09-06T00:34:45.603Z,70.25
2017-09-06T00:35:26.179Z,70.64
2017-09-06T00:36:06.764Z,70.64
2017-09-06T00:36:47.345Z,70.54
2017-09-06T00:37:27.922Z,70.73
2017-09-06T00:38:08.481Z,70.44
2017-09-06T00:38:49.098Z,70.83
2017-09-06T00:39:29.684Z,70.35
2017-09-06T00:40:10.257Z,70.54
2017-09-06T00:40:50.844Z,70.44
2017-09-06T00:41:31.452Z,70.35
2017-09-06T00:42:12.052Z,70.54
2017-09-06T00:42:52.641Z,69.87
2017-09-06T00:43:33.208Z,70.35
2017-09-06T00:44:13.804Z,70.35
2017-09-06T00:44:54.402Z,70.44
2017-09-06T00:45:34.993Z,70.35
2017-09-06T00:46:15.569Z,70.83
2017-09-06T00:46:56.158Z,70.83
2017-09-06T00:47:36.742Z,70.64
2017-09-06T00:48:17.313Z,70.35
2017-09-06T00:48:57.894Z,70.83
2017-09-06T00:49:38.510Z,70.54
2017-09-06T00:50:19.120Z,71.31
2017-09-06T00:50:59.700Z,70.44
2017-09-06T00:51:40.277Z,71.11
2017-09-06T00:52:20.861Z,71.11
2017-09-06T00:53:01.430Z,71.11
2017-09-06T00:53:42.033Z,71.31
2017-09-06T00:54:22.615Z,70.92
2017-09-06T00:55:03.200Z,71.02
2017-09-06T00:55:43.787Z,71.31
2017-09-06T00:56:24.405Z,71.31
2017-09-06T00:57:04.975Z,71.59
2017-09-06T00:57:45.591Z,71.02
2017-09-06T00:58:26.153Z,71.21
2017-09-06T00:59:06.750Z,71.31
2017-09-06T00:59:47.337Z,71.5
2017-09-06T01:00:27.919Z,71.11
2017-09-06T01:01:08.534Z,71.59
2017-09-06T01:01:49.117Z,71.59
2017-09-06T01:02:29.698Z,71.78
2017-09-06T01:03:10.256Z,71.78
2017-09-06T01:03:50.833Z,71.78
2017-09-06T01:04:31.417Z,71.59
2017-09-06T01:05:12.009Z,71.78
2017-09-06T01:05:52.588Z,71.88
2017-09-06T01:06:33.185Z,71.78
2017-09-06T01:07:13.760Z,71.69
2017-09-06T01:07:54.351Z,71.59
2017-09-06T01:08:34.957Z,72.07
2017-09-06T01:09:15.538Z,71.98
2017-09-06T01:09:56.120Z,71.88
2017-09-06T01:10:36.697Z,72.07
2017-09-06T01:11:17.311Z,71.98
2017-09-06T01:11:57.915Z,71.88
2017-09-06T01:12:38.480Z,71.88
2017-09-06T01:13:19.062Z,71.88
2017-09-06T01:13:59.641Z,72.07
2017-09-06T01:14:40.232Z,71.98
2017-09-06T01:15:20.813Z,71.84
2017-09-06T01:16:01.388Z,71.88
2017-09-06T01:16:42.027Z,71.84
2017-09-06T01:17:22.605Z,71.59
2017-09-06T01:18:03.165Z,71.75
2017-09-06T01:18:43.741Z,71.5
2017-09-06T01:19:24.324Z,71.5
2017-09-06T01:20:04.906Z,71.56
2017-09-06T01:20:45.503Z,72.03
2017-09-06T01:21:26.069Z,71.84
2017-09-06T01:22:06.654Z,72.03
2017-09-06T01:22:47.213Z,71.98
2017-09-06T01:23:27.790Z,71.84
2017-09-06T01:24:08.376Z,72.13
2017-09-06T01:24:48.947Z,72.03
2017-09-06T01:25:29.535Z,72.03
2017-09-06T01:26:10.111Z,72.03
2017-09-06T01:26:50.690Z,72.42
2017-09-06T01:27:31.297Z,72.52
2017-09-06T01:28:11.899Z,72.52
2017-09-06T01:28:52.470Z,72.74
2017-09-06T01:29:33.088Z,72.61
2017-09-06T01:30:13.663Z,72.71
2017-09-06T01:30:54.265Z,72.52
2017-09-06T01:31:34.869Z,72.71
2017-09-06T01:32:15.450Z,72.8
2017-09-06T01:32:56.098Z,72.61
2017-09-06T01:33:36.707Z,72.71
2017-09-06T01:34:17.282Z,72.23
2017-09-06T01:34:57.857Z,72.23
2017-09-06T01:35:38.433Z,72.32
2017-09-06T01:36:19.013Z,72.23
2017-09-06T01:36:59.584Z,72.03
2017-09-06T01:37:40.150Z,72.45
2017-09-06T01:38:20.716Z,72.32
2017-09-06T01:39:01.303Z,72.52
2017-09-06T01:39:41.859Z,71.98
2017-09-06T01:40:22.454Z,72.23
2017-09-06T01:41:03.030Z,71.88
2017-09-06T01:41:43.614Z,72.23
2017-09-06T01:42:24.216Z,71.84
2017-09-06T01:43:04.786Z,71.94
2017-09-06T01:43:45.362Z,72.03
2017-09-06T01:44:25.954Z,71.88
2017-09-06T01:45:06.541Z,71.56
2017-09-06T01:45:47.158Z,71.56
2017-09-06T01:46:27.748Z,71.66
2017-09-06T01:47:08.310Z,71.75
2017-09-06T01:47:48.903Z,71.37
2017-09-06T01:48:29.473Z,71.27
2017-09-06T01:49:10.044Z,71.5
2017-09-06T01:49:50.613Z,70.83
2017-09-06T01:50:31.201Z,70.79
2017-09-06T01:51:11.786Z,70.31
2017-09-06T01:51:52.344Z,70.64
2017-09-06T01:52:32.918Z,70.6
2017-09-06T01:53:13.501Z,71.17
2017-09-06T01:53:54.068Z,70.6
2017-09-06T01:54:34.644Z,70.41
2017-09-06T01:55:15.235Z,69.83
2017-09-06T01:55:55.845Z,70.06
2017-09-06T01:56:36.424Z,69.74
2017-09-06T01:57:17.003Z,70.5
2017-09-06T01:57:57.588Z,70.6
2017-09-06T01:58:38.154Z,70.6
2017-09-06T01:59:18.758Z,69.87
2017-09-06T01:59:59.333Z,70.25
2017-09-06T02:00:39.917Z,70.31
2017-09-06T02:01:20.492Z,70.44
2017-09-06T02:02:01.098Z,70.21
2017-09-06T02:02:41.692Z,70.7
2017-09-06T02:03:22.263Z,70.5
2017-09-06T02:04:02.898Z,70.7
2017-09-06T02:04:43.496Z,70.7
2017-09-06T02:05:24.085Z,70.6
2017-09-06T02:06:04.644Z,70.54
2017-09-06T02:06:45.221Z,70.44
2017-09-06T02:07:25.804Z,70.5
2017-09-06T02:08:06.402Z,70.64
2017-09-06T02:08:46.979Z,70.5
2017-09-06T02:09:27.555Z,70.6
2017-09-06T02:10:08.176Z,69.87
2017-09-06T02:10:48.782Z,70.6
2017-09-06T02:11:29.352Z,70.44
2017-09-06T02:12:09.926Z,70.41
2017-09-06T02:12:50.508Z,70.64
2017-09-06T02:13:31.101Z,70.54
2017-09-06T02:14:11.668Z,70.73
2017-09-06T02:14:52.255Z,70.44
2017-09-06T02:15:32.828Z,70.21
2017-09-06T02:16:13.423Z,70.73
2017-09-06T02:16:54.017Z,70.03
2017-09-06T02:17:34.602Z,69.93
2017-09-06T02:18:15.216Z,70.15
2017-09-06T02:18:55.851Z,69.77
2017-09-06T02:19:36.415Z,70.06
2017-09-06T02:20:17.001Z,70.06
2017-09-06T02:20:57.583Z,69.77
2017-09-06T02:21:38.147Z,70.06
2017-09-06T02:22:18.739Z,69.83
2017-09-06T02:22:59.298Z,70.5
2017-09-06T02:23:39.880Z,70.54
2017-09-06T02:24:20.452Z,70.83
2017-09-06T02:25:01.030Z,70.54
2017-09-06T02:25:41.609Z,70.35
2017-09-06T02:26:22.263Z,70.89
2017-09-06T02:27:02.851Z,70.44
2017-09-06T02:27:43.409Z,71.08
2017-09-06T02:28:23.995Z,70.83
2017-09-06T02:29:04.570Z,70.44
2017-09-06T02:29:45.162Z,70.89
2017-09-06T02:30:25.743Z,70.79
2017-09-06T02:31:06.326Z,70.5
2017-09-06T02:31:46.896Z,71.21
2017-09-06T02:32:27.504Z,71.08
2017-09-06T02:33:08.075Z,71.27
2017-09-06T02:33:48.672Z,71.31
2017-09-06T02:34:29.252Z,71.31
2017-09-06T02:35:09.845Z,71.5
2017-09-06T02:35:50.423Z,71.02
2017-09-06T02:36:31.004Z,71.17
2017-09-06T02:37:11.595Z,71.02
2017-09-06T02:37:52.177Z,71.27
2017-09-06T02:38:32.771Z,71.69
2017-09-06T02:39:13.358Z,71.08
2017-09-06T02:39:53.965Z,71.46
2017-09-06T02:40:34.587Z,71.66
2017-09-06T02:41:15.153Z,71.37
2017-09-06T02:41:55.745Z,71.75
2017-09-06T02:42:36.316Z,72.03
2017-09-06T02:43:16.892Z,71.75
2017-09-06T02:43:57.470Z,71.27
2017-09-06T02:44:38.029Z,72.23
2017-09-06T02:45:18.630Z,71.66
2017-09-06T02:45:59.200Z,71.75
2017-09-06T02:46:39.820Z,71.56
2017-09-06T02:47:20.519Z,71.75
2017-09-06T02:48:01.110Z,71.88
2017-09-06T02:48:41.694Z,71.94
2017-09-06T02:49:22.306Z,71.84
2017-09-06T02:50:02.893Z,71.84
2017-09-06T02:50:43.456Z,71.94
2017-09-06T02:51:24.038Z,72.23
2017-09-06T02:52:04.613Z,72.17
2017-09-06T02:52:45.202Z,72.13
2017-09-06T02:53:25.793Z,72.32
2017-09-06T02:54:06.410Z,72.13
2017-09-06T02:54:46.965Z,71.84
2017-09-06T02:55:27.554Z,71.56
2017-09-06T02:56:08.136Z,71.56
2017-09-06T02:56:48.716Z,71.94
2017-09-06T02:57:29.303Z,71.94
2017-09-06T02:58:09.911Z,71.94
2017-09-06T02:58:50.486Z,71.84
2017-09-06T02:59:31.073Z,72.03
2017-09-06T03:00:11.668Z,72.03
2017-09-06T03:00:52.253Z,72.03
2017-09-06T03:01:32.823Z,71.94
2017-09-06T03:02:13.396Z,72.03
2017-09-06T03:02:53.974Z,72.13
2017-09-06T03:03:34.583Z,72.13
2017-09-06T03:04:15.166Z,72.13
2017-09-06T03:04:55.733Z,72.52
2017-09-06T03:05:36.322Z,72.42
2017-09-06T03:06:16.885Z,72.03
2017-09-06T03:06:57.455Z,72.32
2017-09-06T03:07:38.077Z,72.23
2017-09-06T03:08:18.679Z,72.42
2017-09-06T03:08:59.269Z,72.13
2017-09-06T03:09:39.854Z,72.23
2017-09-06T03:10:20.426Z,72.32
2017-09-06T03:11:01.013Z,72.23
2017-09-06T03:11:41.613Z,72.13
2017-09-06T03:12:22.212Z,71.75
2017-09-06T03:13:02.784Z,71.75
2017-09-06T03:13:43.435Z,71.94
2017-09-06T03:14:24.000Z,71.84
2017-09-06T03:15:04.605Z,71.94
2017-09-06T03:15:45.194Z,71.94
2017-09-06T03:16:25.807Z,71.75
2017-09-06T03:17:06.377Z,71.84
2017-09-06T03:17:47.021Z,72.03
2017-09-06T03:18:27.607Z,71.84
2017-09-06T03:19:08.171Z,71.84
2017-09-06T03:19:48.789Z,71.56
2017-09-06T03:20:29.391Z,71.94
2017-09-06T03:21:09.991Z,71.94
2017-09-06T03:21:50.576Z,71.94
2017-09-06T03:22:31.140Z,71.84
2017-09-06T03:23:11.705Z,71.84
2017-09-06T03:23:52.283Z,71.66
2017-09-06T03:24:32.853Z,71.94
2017-09-06T03:25:13.427Z,71.94
2017-09-06T03:25:54.027Z,71.75
2017-09-06T03:26:34.622Z,71.66
2017-09-06T03:27:15.200Z,71.84
2017-09-06T03:27:55.780Z,71.94
2017-09-06T03:28:36.361Z,71.84
2017-09-06T03:29:16.957Z,71.84
2017-09-06T03:29:57.538Z,72.03
2017-09-06T03:30:38.119Z,72.03
2017-09-06T03:31:18.748Z,72.13
2017-09-06T03:31:59.364Z,72.03
2017-09-06T03:32:39.942Z,71.84
2017-09-06T03:33:20.526Z,72.03
2017-09-06T03:34:01.103Z,72.03
2017-09-06T03:34:41.677Z,71.94
2017-09-06T03:35:22.241Z,72.23
2017-09-06T03:36:02.856Z,72.13
2017-09-06T03:36:43.429Z,72.13
2017-09-06T03:37:23.996Z,72.13
2017-09-06T03:38:04.573Z,72.23
2017-09-06T03:38:45.152Z,72.03
2017-09-06T03:39:25.809Z,72.52
2017-09-06T03:40:06.369Z,72.42
2017-09-06T03:40:46.950Z,72.61
2017-09-06T03:41:27.561Z,72.32
2017-09-06T03:42:08.154Z,71.94
2017-09-06T03:42:48.768Z,72.03
2017-09-06T03:43:29.397Z,72.32
2017-09-06T03:44:09.989Z,72.32
2017-09-06T03:44:50.564Z,72.52
2017-09-06T03:45:31.135Z,72.32
2017-09-06T03:46:11.774Z,72.13
2017-09-06T03:46:52.429Z,72.42
2017-09-06T03:47:33.017Z,72.32
2017-09-06T03:48:13.620Z,72.13
2017-09-06T03:48:54.211Z,72.61
2017-09-06T03:49:34.967Z,72.42
2017-09-06T03:50:15.624Z,72.61
2017-09-06T03:50:56.190Z,72.42
2017-09-06T03:51:36.783Z,72.8
2017-09-06T03:52:17.510Z,72.32
2017-09-06T03:52:58.072Z,72.13
2017-09-06T03:53:38.656Z,72.32
2017-09-06T03:54:19.265Z,72.32
2017-09-06T03:54:59.854Z,72.23
2017-09-06T03:55:40.441Z,72.52
2017-09-06T03:56:21.002Z,72.61
2017-09-06T03:57:01.582Z,72.52
2017-09-06T03:57:42.147Z,72.52
2017-09-06T03:58:22.729Z,72.52
2017-09-06T03:59:03.313Z,72.61
2017-09-06T03:59:43.915Z,72.52
2017-09-06T04:00:24.520Z,72.32
2017-09-06T04:01:05.106Z,72.71
2017-09-06T04:01:45.685Z,72.71
2017-09-06T04:02:26.268Z,72.32
2017-09-06T04:03:06.848Z,72.8
2017-09-06T04:03:47.450Z,72.42
2017-09-06T04:04:28.023Z,72.23
2017-09-06T04:05:08.608Z,72.52
2017-09-06T04:05:49.207Z,72.52
2017-09-06T04:06:29.792Z,72.52
2017-09-06T04:07:10.371Z,72.52
2017-09-06T04:07:50.955Z,72.42
2017-09-06T04:08:31.541Z,72.32
2017-09-06T04:09:12.128Z,72.42
2017-09-06T04:09:52.702Z,72.03
2017-09-06T04:10:33.312Z,72.42
2017-09-06T04:11:13.883Z,72.52
2017-09-06T04:11:54.480Z,72.52
2017-09-06T04:12:35.066Z,72.23
2017-09-06T04:13:15.647Z,72.52
2017-09-06T04:13:56.216Z,72.32
2017-09-06T04:14:36.828Z,72.52
2017-09-06T04:15:17.386Z,72.52
2017-09-06T04:15:57.963Z,72.8
2017-09-06T04:16:38.552Z,73.09
2017-09-06T04:17:19.131Z,72.71
2017-09-06T04:17:59.728Z,72.52
2017-09-06T04:18:40.312Z,72.52
2017-09-06T04:19:20.899Z,72.32
2017-09-06T04:20:01.466Z,72.32
2017-09-06T04:20:42.041Z,72.61
2017-09-06T04:21:22.628Z,72.42
2017-09-06T04:22:03.199Z,72.52
2017-09-06T04:22:43.786Z,72.42
2017-09-06T04:23:24.369Z,72.32
2017-09-06T04:24:04.972Z,72.13
2017-09-06T04:24:45.539Z,72.32
2017-09-06T04:25:26.118Z,72.52
2017-09-06T04:26:06.712Z,72.32
2017-09-06T04:26:47.277Z,72.13
2017-09-06T04:27:27.855Z,72.71
2017-09-06T04:28:08.442Z,72.61
2017-09-06T04:28:49.034Z,72.32
2017-09-06T04:29:29.624Z,73.09
2017-09-06T04:30:10.218Z,72.8
2017-09-06T04:30:50.784Z,72.61
2017-09-06T04:31:31.360Z,72.8
2017-09-06T04:32:11.941Z,72.61
2017-09-06T04:32:52.521Z,72.52
2017-09-06T04:33:33.101Z,72.8
2017-09-06T04:34:13.688Z,72.32
2017-09-06T04:34:54.271Z,72.8
2017-09-06T04:35:34.864Z,72.71
2017-09-06T04:36:15.468Z,72.52
2017-09-06T04:36:56.064Z,72.42
2017-09-06T04:37:36.644Z,72.8
2017-09-06T04:38:17.213Z,72.52
2017-09-06T04:38:57.790Z,72.8
2017-09-06T04:39:38.374Z,72.99
2017-09-06T04:40:18.940Z,72.99
2017-09-06T04:40:59.530Z,73.09
2017-09-06T04:41:40.126Z,72.99
2017-09-06T04:42:20.703Z,73.19
2017-09-06T04:43:01.277Z,72.71
2017-09-06T04:43:41.867Z,72.9
2017-09-06T04:44:22.442Z,72.8
2017-09-06T04:45:03.010Z,72.71
2017-09-06T04:45:43.774Z,73.19
2017-09-06T04:46:24.410Z,73.28
2017-09-06T04:47:04.991Z,73.19
2017-09-06T04:47:45.575Z,73.47
2017-09-06T04:48:26.166Z,73.57
2017-09-06T04:49:06.752Z,73.47
2017-09-06T04:49:47.322Z,73.57
2017-09-06T04:50:27.897Z,73.76
2017-09-06T04:51:08.465Z,73.76
2017-09-06T04:51:49.036Z,73.86
2017-09-06T04:52:29.623Z,73.95
2017-09-06T04:53:10.322Z,74.05
2017-09-06T04:53:50.949Z,73.95
2017-09-06T04:54:31.511Z,73.57
2017-09-06T04:55:12.303Z,73.38
2017-09-06T04:55:52.939Z,73.47
2017-09-06T04:56:33.742Z,73.19
2017-09-06T04:57:14.320Z,73.57
2017-09-06T04:57:54.907Z,73.57
2017-09-06T04:58:35.483Z,73.66
2017-09-06T04:59:16.071Z,74.15
2017-09-06T04:59:56.660Z,74.52
2017-09-06T05:00:37.234Z,74.43
2017-09-06T05:01:17.813Z,73.86
2017-09-06T05:01:58.397Z,74.05
2017-09-06T05:02:39.067Z,73.86
2017-09-06T05:03:19.615Z,73.47
2017-09-06T05:04:00.200Z,73.38
2017-09-06T05:04:40.782Z,73.76
2017-09-06T05:05:21.387Z,73.57
2017-09-06T05:06:01.958Z,73.28
2017-09-06T05:06:42.550Z,73.28
2017-09-06T05:07:23.122Z,73.19
2017-09-06T05:08:03.821Z,73.38
2017-09-06T05:08:44.416Z,73.38
2017-09-06T05:09:25.006Z,73.28
2017-09-06T05:10:05.559Z,73.47
2017-09-06T05:10:46.231Z,73.66
2017-09-06T05:11:26.806Z,73.66
2017-09-06T05:12:07.419Z,73.38
2017-09-06T05:12:48.844Z,73.38
2017-09-06T05:13:29.417Z,73.47
2017-09-06T05:14:09.997Z,74.05
2017-09-06T05:14:50.566Z,73.76
2017-09-06T05:15:31.138Z,73.76
2017-09-06T05:16:11.710Z,73.76
2017-09-06T05:16:52.279Z,73.76
2017-09-06T05:17:32.877Z,73.66
2017-09-06T05:18:13.448Z,73.95
2017-09-06T05:18:54.040Z,73.86
2017-09-06T05:19:35.010Z,74.05
2017-09-06T05:20:15.590Z,73.95
2017-09-06T05:20:56.206Z,74.15
2017-09-06T05:21:36.777Z,74.24
2017-09-06T05:22:17.368Z,74.33
2017-09-06T05:22:57.939Z,74.82
2017-09-06T05:23:38.524Z,74.62
2017-09-06T05:24:19.094Z,74.62
2017-09-06T05:24:59.719Z,74.72
2017-09-06T05:25:40.314Z,74.82
2017-09-06T05:26:20.889Z,74.52
2017-09-06T05:27:01.482Z,74.24
2017-09-06T05:27:42.061Z,74.05
2017-09-06T05:28:22.638Z,74.33
2017-09-06T05:29:03.233Z,74.15
2017-09-06T05:29:43.826Z,74.43
2017-09-06T05:30:24.393Z,74.24
2017-09-06T05:31:04.985Z,74.05
2017-09-06T05:31:45.568Z,74.24
2017-09-06T05:32:26.143Z,73.95
2017-09-06T05:33:06.731Z,74.05
2017-09-06T05:33:47.299Z,74.05
2017-09-06T05:34:27.888Z,74.33
2017-09-06T05:35:08.461Z,74.15
2017-09-06T05:35:49.039Z,74.24
2017-09-06T05:36:29.615Z,74.15
2017-09-06T05:37:10.196Z,73.95
2017-09-06T05:37:50.818Z,74.24
2017-09-06T05:38:31.488Z,73.95
2017-09-06T05:39:12.013Z,74.15
2017-09-06T05:39:52.598Z,74.05
2017-09-06T05:40:33.180Z,74.05
2017-09-06T05:41:13.749Z,74.08
2017-09-06T05:41:54.335Z,74.24
2017-09-06T05:42:34.897Z,74.15
2017-09-06T05:43:15.509Z,74.24
2017-09-06T05:43:56.065Z,74.15
2017-09-06T05:44:36.628Z,74.52
2017-09-06T05:45:17.213Z,74.43
2017-09-06T05:45:57.816Z,74.43
2017-09-06T05:46:38.386Z,74.33
2017-09-06T05:47:18.993Z,74.47
2017-09-06T05:47:59.573Z,74.37
2017-09-06T05:48:40.155Z,74.24
2017-09-06T05:49:20.738Z,74.05
2017-09-06T05:50:01.342Z,74.27
2017-09-06T05:50:41.898Z,74.72
2017-09-06T05:51:22.523Z,74.72
2017-09-06T05:52:03.141Z,74.91
2017-09-06T05:52:43.717Z,74.72
2017-09-06T05:53:24.277Z,74.85
2017-09-06T05:54:04.864Z,74.82
2017-09-06T05:54:45.449Z,75.04
2017-09-06T05:55:26.019Z,75.01
2017-09-06T05:56:06.613Z,74.82
2017-09-06T05:56:47.202Z,75.23
2017-09-06T05:57:27.778Z,75.43
2017-09-06T05:58:08.349Z,75.23
2017-09-06T05:58:48.917Z,75.23
2017-09-06T05:59:29.496Z,75.43
2017-09-06T06:00:10.091Z,75.14
2017-09-06T06:00:50.662Z,75.23
2017-09-06T06:01:31.229Z,75.43
2017-09-06T06:02:11.806Z,75.71
2017-09-06T06:02:52.387Z,75.33
2017-09-06T06:03:33.298Z,75.14
2017-09-06T06:04:14.528Z,75.23
2017-09-06T06:04:55.096Z,75.43
2017-09-06T06:05:35.679Z,75.62
2017-09-06T06:06:16.529Z,75.71
2017-09-06T06:06:57.088Z,75.71
2017-09-06T06:07:37.683Z,75.43
2017-09-06T06:08:18.270Z,75.68
2017-09-06T06:08:58.844Z,75.71
2017-09-06T06:09:39.484Z,75.43
2017-09-06T06:10:20.065Z,75.43
2017-09-06T06:11:00.669Z,75.71
2017-09-06T06:11:41.250Z,76
2017-09-06T06:12:21.815Z,76.57
2017-09-06T06:13:02.394Z,76.39
2017-09-06T06:13:42.981Z,76.1
2017-09-06T06:14:23.553Z,76.19
2017-09-06T06:15:04.127Z,76.19
2017-09-06T06:15:44.703Z,76.29
2017-09-06T06:16:25.273Z,76
2017-09-06T06:17:05.839Z,76.1
2017-09-06T06:17:46.421Z,76.1
2017-09-06T06:18:27.010Z,76.1
2017-09-06T06:19:07.647Z,76.29
2017-09-06T06:19:48.223Z,76.19
2017-09-06T06:20:28.842Z,76.48
2017-09-06T06:21:09.418Z,76.29
2017-09-06T06:21:50.041Z,76.29
2017-09-06T06:22:30.619Z,76.29
2017-09-06T06:23:11.188Z,76.29
2017-09-06T06:23:51.763Z,76.48
2017-09-06T06:24:32.381Z,76.86
2017-09-06T06:25:12.996Z,76.48
2017-09-06T06:25:53.582Z,76.77
2017-09-06T06:26:34.161Z,76.77
2017-09-06T06:27:14.740Z,76.57
2017-09-06T06:27:55.303Z,76.48
2017-09-06T06:28:35.883Z,76.77
2017-09-06T06:29:16.519Z,76.77
2017-09-06T06:29:57.064Z,76.86
2017-09-06T06:30:37.641Z,76.77
2017-09-06T06:31:18.232Z,76.48
2017-09-06T06:31:58.827Z,76.57
2017-09-06T06:32:39.419Z,77.06
2017-09-06T06:33:20.008Z,76.48
2017-09-06T06:34:00.631Z,77.06
2017-09-06T06:34:41.259Z,76.67
2017-09-06T06:35:21.828Z,76.86
2017-09-06T06:36:02.411Z,76.77
2017-09-06T06:36:43.002Z,76.67
2017-09-06T06:37:23.582Z,77.15
2017-09-06T06:38:04.173Z,77.34
2017-09-06T06:38:45.012Z,77.44
2017-09-06T06:39:25.596Z,77.44
2017-09-06T06:40:06.585Z,77.53
2017-09-06T06:40:47.176Z,77.53
2017-09-06T06:41:27.742Z,77.44
2017-09-06T06:42:08.331Z,77.34
2017-09-06T06:42:48.942Z,77.44
2017-09-06T06:43:29.528Z,77.34
2017-09-06T06:44:10.097Z,76.96
2017-09-06T06:44:50.672Z,77.34
2017-09-06T06:45:31.244Z,77.25
2017-09-06T06:46:11.872Z,77.34
2017-09-06T06:46:52.470Z,77.15
2017-09-06T06:47:33.061Z,77.15
2017-09-06T06:48:13.640Z,77.34
2017-09-06T06:48:54.267Z,77.25
2017-09-06T06:49:34.861Z,77.44
2017-09-06T06:50:15.579Z,77.34
2017-09-06T06:50:56.196Z,77.25
2017-09-06T06:51:36.762Z,77.34
2017-09-06T06:52:17.342Z,77.44
2017-09-06T06:52:57.931Z,77.53
2017-09-06T06:53:38.540Z,77.15
2017-09-06T06:54:19.151Z,77.63
2017-09-06T06:54:59.732Z,77.63
2017-09-06T06:55:40.322Z,77.44
2017-09-06T06:56:20.898Z,77.44
2017-09-06T06:57:01.481Z,77.63
2017-09-06T06:57:42.207Z,77.44
2017-09-06T06:58:22.789Z,77.53
2017-09-06T06:59:03.356Z,77.53
2017-09-06T06:59:43.957Z,77.34
2017-09-06T07:00:24.553Z,77.44
2017-09-06T07:01:05.135Z,77.44
2017-09-06T07:01:45.718Z,77.53
2017-09-06T07:02:27.025Z,77.44
2017-09-06T07:03:07.593Z,77.67
2017-09-06T07:03:48.354Z,77.63
2017-09-06T07:04:28.985Z,77.53
2017-09-06T07:05:09.594Z,77.44
2017-09-06T07:05:50.242Z,77.95
2017-09-06T07:06:30.823Z,78.15
2017-09-06T07:07:11.974Z,77.86
2017-09-06T07:07:52.601Z,78.02
2017-09-06T07:08:33.197Z,77.67
2017-09-06T07:09:13.783Z,77.86
2017-09-06T07:09:54.362Z,77.86
2017-09-06T07:10:34.947Z,77.95
2017-09-06T07:11:15.492Z,77.95
2017-09-06T07:11:56.187Z,77.86
2017-09-06T07:12:36.751Z,77.76
2017-09-06T07:13:17.331Z,77.95
2017-09-06T07:13:57.913Z,77.76
2017-09-06T07:14:38.500Z,77.76
2017-09-06T07:15:19.060Z,77.95
2017-09-06T07:15:59.701Z,77.92
2017-09-06T07:16:40.318Z,78.44
2017-09-06T07:17:20.897Z,78.44
2017-09-06T07:18:01.618Z,78.72
2017-09-06T07:18:42.193Z,78.34
2017-09-06T07:19:22.778Z,78.44
2017-09-06T07:20:03.350Z,78.53
2017-09-06T07:20:44.639Z,78.44
2017-09-06T07:21:25.201Z,78.34
2017-09-06T07:22:05.813Z,78.63
2017-09-06T07:22:46.387Z,79.3
2017-09-06T07:23:26.959Z,79.21
2017-09-06T07:24:07.578Z,79.3
2017-09-06T07:24:48.163Z,79.3
2017-09-06T07:25:28.739Z,79.3
2017-09-06T07:26:09.461Z,78.72
2017-09-06T07:26:50.148Z,78.72
2017-09-06T07:27:30.765Z,78.72
2017-09-06T07:28:11.534Z,78.82
2017-09-06T07:28:52.199Z,78.44
2017-09-06T07:29:32.822Z,78.82
2017-09-06T07:30:13.349Z,78.34
2017-09-06T07:30:53.939Z,78.53
2017-09-06T07:31:34.500Z,78.25
2017-09-06T07:32:15.079Z,78.53
2017-09-06T07:32:55.651Z,78.34
2017-09-06T07:33:36.225Z,78.53
2017-09-06T07:34:16.824Z,78.34
2017-09-06T07:34:57.419Z,78.34
2017-09-06T07:35:38.010Z,78.63
2017-09-06T07:36:18.670Z,78.63
2017-09-06T07:36:59.387Z,78.86
2017-09-06T07:37:39.905Z,78.38
2017-09-06T07:38:20.495Z,78.44
2017-09-06T07:39:01.060Z,78.34
2017-09-06T07:39:41.649Z,78.86
2017-09-06T07:40:22.247Z,78.63
2017-09-06T07:41:02.841Z,78.96
2017-09-06T07:41:43.456Z,78.57
2017-09-06T07:42:24.071Z,79.05
2017-09-06T07:43:04.661Z,78.47
2017-09-06T07:43:45.272Z,78.77
2017-09-06T07:44:25.893Z,78.86
2017-09-06T07:45:06.466Z,78.67
2017-09-06T07:45:47.097Z,78.96
2017-09-06T07:46:27.698Z,78.77
2017-09-06T07:47:08.314Z,79.05
2017-09-06T07:47:49.132Z,78.96
2017-09-06T07:48:29.719Z,78.96
2017-09-06T07:49:10.325Z,79.24
2017-09-06T07:49:50.884Z,79.34
2017-09-06T07:50:31.461Z,79.14
2017-09-06T07:51:12.243Z,79.82
2017-09-06T07:51:52.895Z,79.82
2017-09-06T07:52:33.553Z,79.91
2017-09-06T07:53:14.136Z,80.3
2017-09-06T07:53:54.713Z,80.3
2017-09-06T07:54:35.306Z,80.11
2017-09-06T07:55:15.899Z,81.07
2017-09-06T07:55:56.487Z,80.87
2017-09-06T07:56:37.088Z,81.07
2017-09-06T07:57:17.679Z,80.97
2017-09-06T07:57:58.258Z,81.26
2017-09-06T07:58:38.861Z,81.26
2017-09-06T07:59:19.441Z,81.64
2017-09-06T08:00:00.022Z,81.93
2017-09-06T08:00:40.597Z,81.93
2017-09-06T08:01:21.196Z,82.31
2017-09-06T08:02:01.809Z,82.51
2017-09-06T08:02:42.396Z,82.21
2017-09-06T08:03:22.977Z,82.7
2017-09-06T08:04:03.581Z,82.98
2017-09-06T08:04:44.177Z,82.6
2017-09-06T08:05:24.797Z,82.98
2017-09-06T08:06:05.541Z,83.18
2017-09-06T08:06:47.222Z,83.37
2017-09-06T08:07:27.770Z,83.08
2017-09-06T08:08:08.873Z,83.56
2017-09-06T08:08:49.451Z,83.56
2017-09-06T08:09:30.022Z,83.56
2017-09-06T08:10:10.609Z,83.27
2017-09-06T08:10:51.187Z,83.94
2017-09-06T08:11:31.812Z,84.14
2017-09-06T08:12:12.384Z,83.94
2017-09-06T08:12:52.983Z,84.04
2017-09-06T08:13:33.637Z,84.61
2017-09-06T08:14:14.197Z,84.61
2017-09-06T08:14:54.786Z,84.52
2017-09-06T08:15:35.390Z,84.71
2017-09-06T08:16:15.961Z,85.19
2017-09-06T08:16:56.899Z,84.71
2017-09-06T08:17:37.469Z,85.28
2017-09-06T08:18:18.061Z,85.77
2017-09-06T08:18:58.636Z,85.86
2017-09-06T08:19:39.265Z,85.96
2017-09-06T08:20:19.823Z,86.05
2017-09-06T08:21:00.400Z,86.82
2017-09-06T08:21:41.012Z,86.88
2017-09-06T08:22:21.628Z,87.01
2017-09-06T08:23:02.214Z,87.3
2017-09-06T08:23:42.849Z,87.35
2017-09-06T08:24:23.420Z,87.59
2017-09-06T08:25:04.005Z,87.64
2017-09-06T08:25:45.070Z,88.22
2017-09-06T08:26:25.711Z,87.84
2017-09-06T08:27:06.324Z,87.84
2017-09-06T08:27:46.921Z,87.84
2017-09-06T08:28:27.508Z,88.22
2017-09-06T08:29:08.129Z,88.41
2017-09-06T08:29:48.722Z,88.89
2017-09-06T08:30:29.338Z,89.18
2017-09-06T08:31:09.951Z,89.85
2017-09-06T08:31:50.574Z,89.85
2017-09-06T08:32:31.159Z,90.23
2017-09-06T08:33:11.763Z,90.04
2017-09-06T08:33:52.369Z,90.14
2017-09-06T08:34:32.962Z,90.14
2017-09-06T08:35:13.762Z,89.85
2017-09-06T08:35:54.623Z,90.23
2017-09-06T08:36:37.365Z,90.33
2017-09-06T08:37:18.184Z,90.9
2017-09-06T08:37:58.792Z,90.81
2017-09-06T08:38:39.433Z,90.81
2017-09-06T08:39:20.056Z,90.81
2017-09-06T08:40:00.779Z,90.9
2017-09-06T08:40:41.361Z,91.19
2017-09-06T08:41:21.936Z,91.28
2017-09-06T08:42:02.658Z,91.57
2017-09-06T08:42:43.310Z,91.57
2017-09-06T08:43:23.899Z,91.57
2017-09-06T08:44:04.493Z,91.19